Time;durP1;ratioP1;P1;durP2;ratioP2;P2;SDS_P1;SDS_P2;PMS_P1;PMS_P2;Temp;Humidity;BMP_temperature;BMP_pressure;BME280_temperature;BME280_humidity;BME280_pressure;Samples;Min_cycle;Max_cycle;Signal;HPM_P1;HPM_P2
2023/12/27 00:02:02;;;;;;;18.67;6.93;;;;;;;5.03;100.00;101974.91;5113529;27;20019;-58
2023/12/27 00:04:27;;;;;;;24.67;7.93;;;;;;;5.08;100.00;101981.81;5113390;27;20034;-58
2023/12/27 00:06:54;;;;;;;15.00;7.38;;;;;;;5.06;100.00;101982.75;5113899;27;20027;-58
2023/12/27 00:09:19;;;;;;;13.48;8.00;;;;;;;5.05;100.00;101976.63;5108985;28;20171;-58
2023/12/27 00:11:44;;;;;;;14.80;6.78;;;;;;;5.01;100.00;101972.31;5111541;28;20055;-58
2023/12/27 00:14:10;;;;;;;23.92;8.48;;;;;;;5.02;100.00;101968.78;5095276;28;20452;-58
2023/12/27 00:16:35;;;;;;;15.35;7.72;;;;;;;4.98;100.00;101969.75;5111483;28;20027;-58
2023/12/27 00:19:00;;;;;;;12.82;6.90;;;;;;;4.99;100.00;101968.84;5094047;28;20020;-58
2023/12/27 00:21:26;;;;;;;16.20;7.57;;;;;;;4.97;100.00;101975.91;5092687;28;20420;-58
2023/12/27 00:23:51;;;;;;;15.95;8.05;;;;;;;4.95;100.00;101983.88;5110871;28;20047;-58
2023/12/27 00:26:19;;;;;;;18.25;7.55;;;;;;;4.95;100.00;101983.88;5110737;28;20053;-58
2023/12/27 00:28:47;;;;;;;17.33;7.57;;;;;;;4.94;100.00;101975.97;5111832;27;20023;-57
2023/12/27 00:31:12;;;;;;;18.85;6.97;;;;;;;4.92;100.00;101969.91;5112265;27;20072;-58
2023/12/27 00:33:37;;;;;;;20.58;8.15;;;;;;;4.93;100.00;101979.53;5111004;28;20027;-58
2023/12/27 00:36:04;;;;;;;18.13;7.10;;;;;;;4.92;100.00;101973.41;5111047;28;20503;-58
2023/12/27 00:38:29;;;;;;;13.05;6.80;;;;;;;4.89;100.00;101972.59;5088220;28;20023;-58
2023/12/27 00:40:55;;;;;;;14.75;7.75;;;;;;;4.88;100.00;101960.28;5092451;28;20030;-58
2023/12/27 00:43:20;;;;;;;17.20;7.45;;;;;;;4.94;100.00;101974.25;5092193;28;20022;-57
2023/12/27 00:45:48;;;;;;;16.77;6.65;;;;;;;4.91;100.00;101957.59;5110550;28;20028;-58
2023/12/27 00:48:13;;;;;;;13.57;7.00;;;;;;;4.89;100.00;101962.06;5110593;28;20073;-58
2023/12/27 00:50:38;;;;;;;18.80;7.88;;;;;;;4.91;100.00;101963.75;5092818;28;20375;-58
2023/12/27 00:53:04;;;;;;;25.23;7.78;;;;;;;4.95;100.00;101968.06;5110957;28;20023;-58
2023/12/27 00:55:29;;;;;;;13.13;6.95;;;;;;;4.97;100.00;101979.44;5092172;28;20054;-58
2023/12/27 00:57:57;;;;;;;15.40;7.55;;;;;;;4.96;100.00;101972.41;5092583;28;20024;-58
2023/12/27 01:00:23;;;;;;;23.38;7.85;;;;;;;4.97;100.00;101978.56;5111018;28;20058;-58
2023/12/27 01:02:48;;;;;;;17.42;7.95;;;;;;;4.96;100.00;101967.13;5113207;28;20106;-58
2023/12/27 01:05:14;;;;;;;15.30;7.50;;;;;;;4.96;100.00;101963.66;5115338;27;20019;-58
2023/12/27 01:07:39;;;;;;;18.85;8.55;;;;;;;4.92;100.00;101948.81;5115175;28;20016;-58
2023/12/27 01:10:05;;;;;;;18.30;7.55;;;;;;;4.91;100.00;101949.69;5114359;28;20024;-58
2023/12/27 01:12:33;;;;;;;21.85;8.10;;;;;;;4.87;100.00;101959.44;5114470;28;20099;-59
2023/12/27 01:15:00;;;;;;;19.70;7.93;;;;;;;4.90;100.00;101954.09;5114423;28;20087;-58
2023/12/27 01:17:25;;;;;;;20.38;7.47;;;;;;;4.80;100.00;101942.03;5114734;28;20043;-58
2023/12/27 01:19:51;;;;;;;16.40;7.32;;;;;;;4.77;100.00;101932.41;5096518;28;20478;-58
2023/12/27 01:22:16;;;;;;;18.85;7.72;;;;;;;4.75;100.00;101934.22;5096617;28;20451;-58
2023/12/27 01:24:41;;;;;;;16.30;8.23;;;;;;;4.74;100.00;101937.75;5116900;27;20123;-58
2023/12/27 01:27:07;;;;;;;21.83;8.07;;;;;;;4.70;100.00;101933.44;5116174;27;20036;-58
2023/12/27 01:29:32;;;;;;;23.08;8.27;;;;;;;4.69;100.00;101934.34;5115505;27;20031;-58
2023/12/27 01:31:58;;;;;;;20.92;7.72;;;;;;;4.68;100.00;101931.75;5096080;28;20137;-58
2023/12/27 01:34:24;;;;;;;14.90;7.60;;;;;;;4.67;100.00;101941.41;5114054;28;20035;-57
2023/12/27 01:36:49;;;;;;;13.32;6.72;;;;;;;4.64;100.00;101941.47;5114447;28;20023;-57
2023/12/27 01:39:15;;;;;;;19.23;8.02;;;;;;;4.63;100.00;101938.88;5095297;27;20030;-58
2023/12/27 01:41:41;;;;;;;15.93;8.88;;;;;;;4.65;100.00;101942.38;5115609;27;20027;-58
2023/12/27 01:44:06;;;;;;;22.20;8.32;;;;;;;4.62;100.00;101951.19;5115203;27;20062;-58
2023/12/27 01:46:31;;;;;;;19.10;7.60;;;;;;;4.58;100.00;101949.50;5114011;28;20494;-58
2023/12/27 01:49:00;;;;;;;16.20;7.57;;;;;;;4.58;100.00;101961.81;5115074;27;20038;-58
2023/12/27 01:51:26;;;;;;;13.85;7.85;;;;;;;4.56;100.00;101959.22;5095855;28;20621;-58
2023/12/27 01:53:52;;;;;;;19.15;7.55;;;;;;;4.52;100.00;101957.53;5114851;27;20091;-57
2023/12/27 01:56:20;;;;;;;11.02;7.25;;;;;;;4.49;100.00;101958.47;5114960;27;20076;-58
2023/12/27 01:58:45;;;;;;;16.88;7.95;;;;;;;4.59;100.00;101964.44;5096483;28;20068;-57
2023/12/27 02:01:10;;;;;;;17.27;7.22;;;;;;;4.55;100.00;101949.56;5119749;27;20023;-58
2023/12/27 02:03:36;;;;;;;18.30;7.25;;;;;;;4.58;100.00;101944.22;5113833;28;20497;-58
2023/12/27 02:06:02;;;;;;;16.95;7.63;;;;;;;4.59;100.00;101927.53;5095749;28;20167;-58
2023/12/27 02:08:28;;;;;;;22.10;7.63;;;;;;;4.67;100.00;101944.03;5115820;27;20149;-58
2023/12/27 02:10:54;;;;;;;17.30;7.55;;;;;;;4.67;100.00;101933.50;5115557;27;20607;-58
2023/12/27 02:13:19;;;;;;;15.32;6.95;;;;;;;4.69;100.00;101931.72;5117144;27;20098;-58
2023/12/27 02:15:46;;;;;;;14.38;7.25;;;;;;;4.65;100.00;101927.41;5113617;28;20088;-58
2023/12/27 02:18:17;;;;;;;16.48;7.28;;;;;;;4.69;100.00;101931.72;5127677;27;20023;-58
2023/12/27 02:20:50;;;;;;;24.10;7.13;;;;;;;4.72;100.00;101944.81;5131382;27;20034;-58
2023/12/27 02:23:20;;;;;;;24.50;7.78;;;;;;;4.73;100.00;101932.50;5103969;27;20019;-58
2023/12/27 02:25:46;;;;;;;;;;;;;;;4.79;100.00;101932.38;5098226;28;20076;-58
2023/12/27 02:28:11;;;;;;;20.52;7.40;;;;;;;4.74;100.00;101923.72;5125228;27;19995;-58
2023/12/27 02:30:38;;;;;;;18.08;6.68;;;;;;;4.76;100.00;101914.88;5130596;27;20092;-58
2023/12/27 02:33:04;;;;;;;21.40;6.95;;;;;;;4.75;100.00;101907.00;5103285;28;20027;-58
2023/12/27 02:35:30;;;;;;;16.80;6.40;;;;;;;4.71;100.00;101908.84;5108404;27;20046;-58
2023/12/27 02:37:58;;;;;;;14.35;6.47;;;;;;;4.76;100.00;101908.72;5134717;27;20023;-58
2023/12/27 02:40:25;;;;;;;19.45;7.53;;;;;;;4.79;100.00;101913.91;5095953;28;20024;-58
2023/12/27 02:42:51;;;;;;;20.45;6.60;;;;;;;4.74;100.00;101906.13;5132269;27;20038;-58
2023/12/27 02:45:16;;;;;;;17.00;6.63;;;;;;;4.81;100.00;101908.63;5133128;27;20047;-58
2023/12/27 02:47:42;;;;;;;21.25;6.20;;;;;;;4.81;100.00;101911.28;5121102;27;20030;-58
2023/12/27 02:50:07;;;;;;;16.98;7.00;;;;;;;4.81;100.00;101898.94;5112866;27;20036;-58
2023/12/27 02:52:33;;;;;;;14.82;7.20;;;;;;;4.78;100.00;101897.25;5132924;27;20023;-58
2023/12/27 02:55:01;;;;;;;15.85;6.32;;;;;;;4.79;100.00;101895.47;5095271;28;20024;-58
2023/12/27 02:57:27;;;;;;;18.70;7.03;;;;;;;4.80;100.00;101893.72;5125152;27;20050;-58
2023/12/27 02:59:53;;;;;;;13.98;6.07;;;;;;;4.84;100.00;101876.94;5119709;27;20407;-58
2023/12/27 03:02:18;;;;;;;14.02;7.45;;;;;;;4.88;100.00;101884.75;5115045;27;20030;-58
2023/12/27 03:04:43;;;;;;;14.38;6.95;;;;;;;4.92;100.00;101878.50;5126083;27;20114;-58
2023/12/27 03:07:11;;;;;;;21.70;7.28;;;;;;;4.95;100.00;101867.88;5120318;27;20024;-58
2023/12/27 03:09:36;;;;;;;20.15;7.30;;;;;;;4.95;100.00;101857.34;5127113;27;20023;-58
2023/12/27 03:12:02;;;;;;;18.35;7.53;;;;;;;4.96;100.00;101864.34;5115748;27;20011;-58
2023/12/27 03:14:28;;;;;;;17.67;6.50;;;;;;;4.92;100.00;101853.91;5098867;28;20441;-58
2023/12/27 03:16:53;;;;;;;20.88;6.78;;;;;;;4.89;100.00;101860.13;5114934;27;20023;-58
2023/12/27 03:19:18;;;;;;;14.75;7.10;;;;;;;4.95;100.00;101852.06;5113296;28;20038;-58
2023/12/27 03:21:44;;;;;;;21.83;7.10;;;;;;;4.94;100.00;101837.16;5113275;28;20023;-58
2023/12/27 03:24:10;;;;;;;14.13;6.00;;;;;;;4.93;100.00;101831.91;5106884;27;20025;-58
2023/12/27 03:26:35;;;;;;;16.13;6.97;;;;;;;4.96;100.00;101824.78;5099917;28;20024;-58
2023/12/27 03:29:00;;;;;;;12.90;6.18;;;;;;;4.97;100.00;101833.56;5106396;28;20505;-58
2023/12/27 03:31:28;;;;;;;20.55;6.78;;;;;;;4.97;100.00;101845.00;5114869;27;20035;-58
2023/12/27 03:33:58;;;;;;;11.88;6.32;;;;;;;4.98;100.00;101843.22;5124970;27;20038;-58
2023/12/27 03:36:24;;;;;;;24.42;6.47;;;;;;;5.00;100.00;101838.78;5101985;28;20118;-58
2023/12/27 03:38:53;;;;;;;16.10;6.57;;;;;;;4.98;100.00;101836.16;5115032;27;20031;-58
2023/12/27 03:41:18;;;;;;;8.95;5.82;;;;;;;5.00;100.00;101831.75;5107596;28;20028;-58
2023/12/27 03:43:43;;;;;;;13.18;5.60;;;;;;;4.96;100.00;101808.97;5114316;27;20505;-58
2023/12/27 03:46:10;;;;;;;25.90;7.13;;;;;;;5.00;100.00;101812.44;5121918;27;20084;-58
2023/12/27 03:48:38;;;;;;;18.13;6.90;;;;;;;4.95;100.00;101799.34;5114007;27;20512;-58
2023/12/27 03:51:04;;;;;;;16.58;7.00;;;;;;;4.91;100.00;101791.53;5125936;27;20024;-58
2023/12/27 03:53:29;;;;;;;13.02;6.32;;;;;;;4.93;100.00;101787.09;5111926;28;20085;-58
2023/12/27 03:55:55;;;;;;;20.15;6.30;;;;;;;4.95;100.00;101790.56;5113922;27;20019;-58
2023/12/27 03:58:20;;;;;;;18.80;7.88;;;;;;;4.93;100.00;101785.31;5119584;27;20419;-58
2023/12/27 04:00:45;;;;;;;21.05;6.93;;;;;;;4.94;100.00;101780.91;5121989;27;20420;-59
2023/12/27 04:03:11;;;;;;;15.27;7.00;;;;;;;4.96;100.00;101787.03;5113576;27;20039;-58
2023/12/27 04:05:36;;;;;;;21.13;6.68;;;;;;;4.91;100.00;101765.19;5113136;27;20051;-58
2023/12/27 04:08:06;;;;;;;17.80;6.47;;;;;;;4.92;100.00;101773.06;5101602;27;20035;-58
2023/12/27 04:10:33;;;;;;;17.25;7.07;;;;;;;4.91;100.00;101768.69;5106946;28;20020;-58
2023/12/27 04:12:59;;;;;;;18.73;7.40;;;;;;;4.92;100.00;101769.56;5122051;27;20119;-58
2023/12/27 04:15:24;;;;;;;14.48;7.60;;;;;;;4.95;100.00;101770.34;5112156;28;20118;-58
2023/12/27 04:17:50;;;;;;;16.85;7.25;;;;;;;4.93;100.00;101769.50;5104219;28;20031;-58
2023/12/27 04:20:15;;;;;;;18.58;7.40;;;;;;;4.92;100.00;101759.03;5125095;27;20113;-58
2023/12/27 04:22:41;;;;;;;17.17;7.55;;;;;;;4.92;100.00;101765.16;5124636;27;20173;-58
2023/12/27 04:25:06;;;;;;;15.07;7.40;;;;;;;4.82;100.00;101742.53;5101216;28;20110;-58
2023/12/27 04:27:32;;;;;;;19.17;6.60;;;;;;;4.92;100.00;101759.03;5119313;27;20035;-58
2023/12/27 04:29:57;;;;;;;24.17;7.53;;;;;;;4.92;100.00;101765.16;5121627;27;20119;-58
2023/12/27 04:32:23;;;;;;;20.50;7.88;;;;;;;4.91;100.00;101763.44;5106533;27;20453;-58
2023/12/27 04:34:48;;;;;;;26.83;10.10;;;;;;;4.93;100.00;101750.19;5123035;27;20031;-59
2023/12/27 04:37:13;;;;;;;18.45;7.65;;;;;;;4.95;100.00;101759.81;5116598;27;20027;-61
2023/12/27 04:39:39;;;;;;;17.42;7.57;;;;;;;4.87;100.00;101745.94;5130193;27;20526;-58
2023/12/27 04:42:05;;;;;;;16.27;7.35;;;;;;;4.95;100.00;101765.06;5117990;27;20036;-58
2023/12/27 04:44:30;;;;;;;16.85;7.05;;;;;;;4.96;100.00;101766.78;5112990;27;20474;-56
2023/12/27 04:46:56;;;;;;;21.17;7.90;;;;;;;4.98;100.00;101750.97;5119082;27;20340;-58
2023/12/27 04:49:21;;;;;;;18.58;7.50;;;;;;;5.01;100.00;101748.25;5111740;28;20435;-58
2023/12/27 04:51:47;;;;;;;22.58;7.43;;;;;;;5.05;100.00;101744.59;5112645;27;20024;-58
2023/12/27 04:54:12;;;;;;;17.20;7.38;;;;;;;5.08;100.00;101741.03;5122890;28;20030;-58
2023/12/27 04:56:37;;;;;;;17.35;7.38;;;;;;;5.08;100.00;101744.53;5117994;28;20364;-58
2023/12/27 04:59:05;;;;;;;21.00;7.20;;;;;;;5.09;100.00;101727.81;5129406;28;20027;-60
2023/12/27 05:01:33;;;;;;;17.65;8.80;;;;;;;5.09;100.00;101730.47;5113289;28;20491;-57
2023/12/27 05:03:59;;;;;;;17.42;7.45;;;;;;;5.16;100.00;101734.66;5100890;28;20182;-58
2023/12/27 05:06:24;;;;;;;18.00;7.20;;;;;;;5.17;100.00;101724.97;5128923;28;20037;-58
2023/12/27 05:08:50;;;;;;;21.90;8.40;;;;;;;5.14;100.00;101720.63;5095856;28;20110;-57
2023/12/27 05:11:19;;;;;;;17.38;7.00;;;;;;;5.16;100.00;101718.84;5131426;28;20015;-58
2023/12/27 05:13:45;;;;;;;14.27;5.93;;;;;;;5.16;100.00;101710.06;5116053;28;20034;-57
2023/12/27 05:16:17;;;;;;;16.92;7.05;;;;;;;5.22;100.00;101723.09;5102797;28;20114;-58
2023/12/27 05:18:44;;;;;;;12.40;7.18;;;;;;;5.18;100.00;101714.41;5093235;28;20036;-57
2023/12/27 05:21:12;;;;;;;17.05;7.03;;;;;;;5.18;100.00;101714.41;5099200;28;20143;-58
2023/12/27 05:23:38;;;;;;;20.27;8.60;;;;;;;5.20;100.00;101714.34;5118158;28;20027;-58
2023/12/27 05:26:04;;;;;;;11.65;6.63;;;;;;;5.20;100.00;101706.41;5131324;28;20500;-57
2023/12/27 05:28:30;;;;;;;19.75;7.72;;;;;;;5.16;100.00;101696.88;5106758;28;20035;-58
2023/12/27 05:30:55;;;;;;;20.58;7.13;;;;;;;5.17;100.00;101702.09;5106521;28;20030;-57
2023/12/27 05:33:21;;;;;;;16.00;6.78;;;;;;;5.21;100.00;101689.72;5123880;28;20031;-58
2023/12/27 05:35:47;;;;;;;13.85;7.10;;;;;;;5.18;100.00;101680.13;5113600;28;20066;-58
2023/12/27 05:38:12;;;;;;;11.32;7.00;;;;;;;5.21;100.00;101682.66;5124019;28;20481;-58
2023/12/27 05:40:37;;;;;;;22.20;7.25;;;;;;;5.17;100.00;101673.09;5110905;28;20075;-58
2023/12/27 05:43:04;;;;;;;15.05;7.03;;;;;;;5.20;100.00;101672.16;5092544;28;20016;-58
2023/12/27 05:45:29;;;;;;;23.58;10.23;;;;;;;5.24;100.00;101674.66;5111694;28;20138;-58
2023/12/27 05:47:56;;;;;;;20.33;7.53;;;;;;;5.28;100.00;101688.63;5110199;28;20555;-58
2023/12/27 05:50:21;;;;;;;15.77;6.93;;;;;;;5.29;100.00;101679.78;5111463;28;20024;-57
2023/12/27 05:52:47;;;;;;;21.45;7.53;;;;;;;5.27;100.00;101668.44;5097521;28;20020;-58
2023/12/27 05:55:13;;;;;;;14.20;7.05;;;;;;;5.31;100.00;101674.50;5113556;28;20080;-57
2023/12/27 05:57:39;;;;;;;12.73;7.53;;;;;;;5.26;100.00;101658.78;5114583;27;20049;-57
2023/12/27 06:00:08;;;;;;;14.05;6.65;;;;;;;5.31;100.00;101658.66;5096266;28;20027;-57
2023/12/27 06:02:33;;;;;;;16.38;7.15;;;;;;;5.28;100.00;101651.69;5115513;27;20030;-57
2023/12/27 06:05:02;;;;;;;13.68;6.93;;;;;;;5.32;100.00;101657.75;5095314;28;20114;-58
2023/12/27 06:07:28;;;;;;;17.17;7.90;;;;;;;5.30;100.00;101649.03;5115404;27;20382;-58
2023/12/27 06:09:53;;;;;;;13.05;6.68;;;;;;;5.31;100.00;101648.13;5092666;28;20056;-58
2023/12/27 06:12:18;;;;;;;12.52;6.50;;;;;;;5.32;100.00;101644.56;5114289;27;20062;-58
2023/12/27 06:14:45;;;;;;;21.80;7.78;;;;;;;5.35;100.00;101647.97;5097776;27;20027;-58
2023/12/27 06:17:10;;;;;;;10.35;6.72;;;;;;;5.36;100.00;101640.94;5115667;27;20037;-58
2023/12/27 06:19:36;;;;;;;16.17;6.30;;;;;;;5.33;100.00;101635.75;5117956;27;20085;-58
2023/12/27 06:22:05;;;;;;;15.65;6.93;;;;;;;5.30;100.00;101620.88;5113661;28;20490;-58
2023/12/27 06:24:32;;;;;;;10.10;6.55;;;;;;;5.35;100.00;101616.31;5095219;28;20123;-57
2023/12/27 06:26:58;;;;;;;12.77;7.13;;;;;;;5.40;100.00;101611.78;5114254;27;20088;-58
2023/12/27 06:29:26;;;;;;;7.70;6.15;;;;;;;5.41;100.00;101612.66;5113232;28;20027;-58
2023/12/27 06:31:51;;;;;;;11.60;5.93;;;;;;;5.40;100.00;101608.28;5115434;27;20053;-58
2023/12/27 06:34:19;;;;;;;13.23;7.18;;;;;;;5.38;100.00;101602.19;5109368;27;20530;-58
2023/12/27 06:36:45;;;;;;;13.45;6.65;;;;;;;5.36;100.00;101596.97;5098404;27;20126;-57
2023/12/27 06:39:10;;;;;;;15.02;6.55;;;;;;;5.45;100.00;101601.13;5094278;28;20106;-58
2023/12/27 06:41:36;;;;;;;17.00;7.50;;;;;;;5.46;100.00;101590.50;5113462;28;20028;-57
2023/12/27 06:44:02;;;;;;;15.40;6.75;;;;;;;5.42;100.00;101590.66;5116135;27;20482;-58
2023/12/27 06:46:28;;;;;;;8.95;6.93;;;;;;;5.52;100.00;101593.88;5112971;28;20398;-58
2023/12/27 06:48:53;;;;;;;10.30;7.07;;;;;;;5.48;100.00;101590.47;5109947;28;20027;-58
2023/12/27 06:51:19;;;;;;;13.65;8.07;;;;;;;5.45;100.00;101574.72;5112889;28;20031;-58
2023/12/27 06:53:44;;;;;;;13.93;7.63;;;;;;;5.52;100.00;101567.47;5117222;27;20442;-58
2023/12/27 06:56:10;;;;;;;10.45;6.00;;;;;;;5.58;100.00;101583.13;5113440;27;20530;-58
2023/12/27 06:58:36;;;;;;;8.80;6.75;;;;;;;5.56;100.00;101570.00;5094412;28;20450;-57
2023/12/27 07:01:01;;;;;;;7.57;6.60;;;;;;;5.59;100.00;101563.72;5112790;28;20034;-57
2023/12/27 07:03:27;;;;;;;8.10;6.55;;;;;;;5.60;100.00;101576.03;5093128;28;20024;-57
2023/12/27 07:05:52;;;;;;;12.00;7.05;;;;;;;5.62;100.00;101569.81;5094713;28;20034;-58
2023/12/27 07:08:17;;;;;;;11.95;6.75;;;;;;;5.62;100.00;101574.22;5093893;28;20516;-57
2023/12/27 07:10:43;;;;;;;8.75;6.50;;;;;;;5.61;100.00;101567.19;5109804;28;20032;-58
2023/12/27 07:13:08;;;;;;;13.52;7.40;;;;;;;5.64;100.00;101575.03;5094160;28;20020;-57
2023/12/27 07:15:35;;;;;;;8.82;6.60;;;;;;;5.63;100.00;101558.34;5112314;28;20027;-58
2023/12/27 07:18:00;;;;;;;9.55;7.20;;;;;;;5.73;100.00;101563.31;5093835;28;20509;-58
2023/12/27 07:20:26;;;;;;;10.85;6.95;;;;;;;5.75;100.00;101558.88;5093228;28;20028;-58
2023/12/27 07:22:51;;;;;;;12.65;7.38;;;;;;;5.77;100.00;101560.53;5112326;28;20216;-58
2023/12/27 07:25:16;;;;;;;7.75;6.40;;;;;;;5.81;100.00;101567.44;5111626;28;20431;-57
2023/12/27 07:27:42;;;;;;;9.18;7.55;;;;;;;5.84;100.00;101558.56;5110966;28;20026;-57
2023/12/27 07:30:10;;;;;;;10.82;7.13;;;;;;;5.87;100.00;101553.19;5111484;28;20477;-57
2023/12/27 07:32:35;;;;;;;10.68;7.70;;;;;;;5.88;100.00;101545.22;5095745;27;20043;-57
2023/12/27 07:35:01;;;;;;;11.70;7.65;;;;;;;5.91;100.00;101550.41;5093670;28;20511;-57
2023/12/27 07:37:27;;;;;;;8.18;5.72;;;;;;;5.94;100.00;101557.38;5095002;28;20020;-57
2023/12/27 07:39:57;;;;;;;9.65;6.93;;;;;;;5.95;100.00;101548.56;5111454;27;20027;-58
2023/12/27 07:42:24;;;;;;;10.60;8.32;;;;;;;5.99;100.00;101549.31;5094670;28;20030;-58
2023/12/27 07:44:50;;;;;;;12.15;7.65;;;;;;;5.98;100.00;101547.59;5111389;28;21616;-57
2023/12/27 07:47:16;;;;;;;11.35;7.50;;;;;;;6.04;100.00;101561.47;5112957;27;20106;-58
2023/12/27 07:49:42;;;;;;;9.98;7.65;;;;;;;6.07;100.00;101547.31;5095026;28;20019;-58
2023/12/27 07:52:08;;;;;;;11.43;7.75;;;;;;;6.08;100.00;101557.78;5091465;28;20016;-58
2023/12/27 07:54:36;;;;;;;10.70;7.32;;;;;;;6.12;100.00;101559.44;5112370;27;20020;-58
2023/12/27 07:57:01;;;;;;;10.93;8.30;;;;;;;6.13;100.00;101545.31;5111663;28;20462;-57
2023/12/27 07:59:26;;;;;;;9.75;7.25;;;;;;;6.14;100.00;101536.47;5092910;28;20020;-58
2023/12/27 08:01:52;;;;;;;9.75;7.40;;;;;;;6.19;100.00;101543.38;5112340;27;20020;-58
2023/12/27 08:04:17;;;;;;;10.13;7.63;;;;;;;6.18;100.00;101528.44;5094790;28;20535;-58
2023/12/27 08:06:43;;;;;;;14.70;8.15;;;;;;;6.23;100.00;101543.22;5094333;27;20039;-58
2023/12/27 08:09:08;;;;;;;11.50;8.02;;;;;;;6.24;100.00;101534.41;5092681;28;20027;-58
2023/12/27 08:11:34;;;;;;;11.95;7.30;;;;;;;6.25;100.00;101528.19;5108583;28;20055;-58
2023/12/27 08:13:59;;;;;;;12.18;7.45;;;;;;;6.29;100.00;101527.16;5112196;27;20019;-58
2023/12/27 08:16:25;;;;;;;12.43;7.95;;;;;;;6.31;100.00;101527.97;5111763;28;20026;-58
2023/12/27 08:18:50;;;;;;;16.90;8.38;;;;;;;6.33;100.00;101534.06;5092456;28;20023;-58
2023/12/27 08:21:16;;;;;;;12.93;7.18;;;;;;;6.35;100.00;101523.44;5111563;27;20367;-58
2023/12/27 08:23:45;;;;;;;13.98;7.88;;;;;;;6.33;100.00;101509.44;5111908;27;20038;-58
2023/12/27 08:26:11;;;;;;;13.05;7.82;;;;;;;6.40;100.00;101510.09;5091119;28;20031;-58
2023/12/27 08:28:37;;;;;;;11.32;7.00;;;;;;;6.42;100.00;101502.97;5105765;27;20034;-58
2023/12/27 08:31:04;;;;;;;10.82;7.70;;;;;;;6.43;100.00;101484.41;5110985;28;20035;-59
2023/12/27 08:33:30;;;;;;;14.73;7.90;;;;;;;6.41;100.00;101480.09;5126162;27;20374;-58
2023/12/27 08:35:56;;;;;;;10.93;7.60;;;;;;;6.46;100.00;101494.88;5111201;28;20032;-58
2023/12/27 08:38:23;;;;;;;9.77;6.80;;;;;;;6.48;100.00;101500.97;5112949;27;20023;-58
2023/12/27 08:40:49;;;;;;;13.48;7.78;;;;;;;6.42;100.00;101476.56;5109274;28;20061;-58
2023/12/27 08:43:14;;;;;;;11.15;7.43;;;;;;;6.45;100.00;101469.38;5092933;27;20082;-58
2023/12/27 08:45:39;;;;;;;11.00;7.28;;;;;;;6.49;100.00;101481.53;5091084;28;20050;-58
2023/12/27 08:48:06;;;;;;;12.27;7.43;;;;;;;6.52;100.00;101475.28;5093075;28;20472;-59
2023/12/27 08:50:32;;;;;;;12.95;7.05;;;;;;;6.58;100.00;101491.78;5110923;27;20027;-58
2023/12/27 08:52:57;;;;;;;11.85;6.80;;;;;;;6.60;100.00;101484.66;5110655;27;20024;-58
2023/12/27 08:55:23;;;;;;;11.32;6.57;;;;;;;6.64;100.00;101471.34;5109518;28;20081;-59
2023/12/27 08:57:48;;;;;;;9.02;6.68;;;;;;;6.63;100.00;101459.06;5110927;28;20027;-58
2023/12/27 09:00:14;;;;;;;12.43;7.07;;;;;;;6.70;100.00;101474.63;5092762;28;20033;-58
2023/12/27 09:02:40;;;;;;;12.23;5.97;;;;;;;6.74;100.00;101467.47;5108747;28;20137;-58
2023/12/27 09:05:06;;;;;;;13.73;6.90;;;;;;;6.73;100.00;101468.34;5110263;28;20035;-58
2023/12/27 09:07:32;;;;;;;11.82;7.00;;;;;;;6.75;100.00;101464.75;5109878;28;20036;-58
2023/12/27 09:10:00;;;;;;;9.32;6.05;;;;;;;6.73;100.00;101457.78;5109458;28;20040;-58
2023/12/27 09:12:25;;;;;;;7.57;5.97;;;;;;;6.77;100.00;101460.28;5116044;28;20088;-58
2023/12/27 09:14:51;;;;;;;15.13;5.93;;;;;;;6.77;100.00;101462.06;5119597;28;20057;-58
2023/12/27 09:17:16;;;;;;;12.57;5.88;;;;;;;6.82;100.00;101471.53;5119303;28;20026;-58
2023/12/27 09:19:42;;;;;;;10.45;5.95;;;;;;;6.83;100.00;101456.53;5112248;28;20034;-58
2023/12/27 09:22:08;;;;;;;9.23;5.53;;;;;;;6.83;100.00;101452.09;5093266;28;20031;-58
2023/12/27 09:24:34;;;;;;;8.27;6.00;;;;;;;6.79;100.00;101444.34;5093958;28;20081;-58
2023/12/27 09:26:59;;;;;;;8.55;5.68;;;;;;;6.88;100.00;101451.91;5113779;27;20092;-58
2023/12/27 09:29:25;;;;;;;7.10;5.38;;;;;;;6.91;100.00;101449.19;5113655;27;20039;-59
2023/12/27 09:31:50;;;;;;;7.18;4.90;;;;;;;6.90;100.00;101447.44;5097109;27;20042;-58
2023/12/27 09:34:16;;;;;;;10.48;5.55;;;;;;;6.94;100.00;101450.81;5113367;28;20016;-58
2023/12/27 09:36:41;;;;;;;9.25;5.88;;;;;;;6.96;100.00;101449.00;5113192;27;20043;-58
2023/12/27 09:39:13;;;;;;;6.80;5.18;;;;;;;6.99;100.00;101440.94;5091322;28;20024;-59
2023/12/27 09:41:40;;;;;;;9.55;5.95;;;;;;;7.01;100.00;101436.47;5110662;28;20067;-58
2023/12/27 09:44:07;;;;;;;5.95;5.07;;;;;;;7.04;100.00;101442.47;5076582;28;20592;-58
2023/12/27 09:46:35;;;;;;;6.47;5.25;;;;;;;7.03;100.00;101424.03;5113155;28;20039;-58
2023/12/27 09:49:03;;;;;;;8.27;5.15;;;;;;;7.13;100.00;101421.88;5095072;28;20077;-58
2023/12/27 09:51:29;;;;;;;6.95;4.93;;;;;;;7.15;100.00;101428.84;5111215;28;20142;-58
2023/12/27 09:53:55;;;;;;;5.63;4.85;;;;;;;7.17;100.00;101424.34;5113064;28;20037;-58
2023/12/27 09:56:27;;;;;;;8.05;4.63;;;;;;;7.21;100.00;101412.72;5114476;27;21627;-59
2023/12/27 09:59:00;;;;;;;8.75;5.00;;;;;;;7.25;100.00;101429.34;5113819;27;20023;-58
2023/12/27 10:01:29;;;;;;;6.18;4.70;;;;;;;7.29;100.00;101412.41;5097297;27;20039;-58
2023/12/27 10:04:40;;;;;;;6.95;4.60;;;;;;;7.35;100.00;101425.38;5113295;27;20039;-58
2023/12/27 10:07:06;;;;;;;5.20;4.20;;;;;;;7.34;100.00;101415.72;5093500;27;20043;-57
2023/12/27 10:09:33;;;;;;;5.95;3.50;;;;;;;7.43;100.00;101428.59;5112331;28;20019;-58
2023/12/27 10:11:59;;;;;;;5.85;3.50;;;;;;;7.50;100.00;101427.44;5112888;28;20031;-58
2023/12/27 10:14:26;;;;;;;6.10;3.20;;;;;;;7.53;100.00;101428.22;5094652;28;20058;-57
2023/12/27 10:16:51;;;;;;;4.30;3.22;;;;;;;7.58;100.00;101420.94;5112804;28;20567;-57
2023/12/27 10:19:37;;;;;;;5.78;2.78;;;;;;;7.60;100.00;101412.03;5113729;27;20023;-57
2023/12/27 10:22:06;;;;;;;3.85;2.47;;;;;;;7.63;100.00;101393.38;5105690;27;20026;-58
2023/12/27 10:24:32;;;;;;;2.83;2.63;;;;;;;7.72;100.00;101416.81;5094646;28;20470;-57
2023/12/27 10:27:00;;;;;;;8.57;2.72;;;;;;;7.73;100.00;101401.75;5111808;28;20118;-57
2023/12/27 10:29:25;;;;;;;3.45;2.47;;;;;;;7.76;100.00;101401.63;5092353;28;20111;-58
2023/12/27 10:31:51;;;;;;;3.72;2.90;;;;;;;7.79;100.00;101398.00;5129833;27;20164;-58
2023/12/27 10:34:18;;;;;;;4.45;2.63;;;;;;;7.84;100.00;101390.72;5113445;27;20016;-57
2023/12/27 10:36:43;;;;;;;4.43;2.35;;;;;;;7.79;100.00;101377.69;5095958;28;20016;-57
2023/12/27 10:39:09;;;;;;;3.55;2.80;;;;;;;7.94;100.00;101395.56;5114065;28;20032;-57
2023/12/27 10:41:37;;;;;;;3.72;2.72;;;;;;;7.88;100.00;101382.59;5114270;28;20539;-57
2023/12/27 10:44:04;;;;;;;5.25;2.63;;;;;;;7.93;100.00;101380.59;5095899;28;20505;-57
2023/12/27 10:46:31;;;;;;;4.60;2.95;;;;;;;7.92;100.00;101383.31;5115619;27;20375;-57
2023/12/27 10:49:01;;;;;;;5.07;2.30;;;;;;;7.95;100.00;101377.88;5100982;27;20031;-57
2023/12/27 10:51:38;;;;;;;9.48;2.95;;;;;;;7.98;100.00;101377.75;5115397;27;20067;-57
2023/12/27 10:54:04;;;;;;;6.00;2.90;;;;;;;8.01;100.00;101369.69;5119234;27;20137;-58
2023/12/27 10:56:39;;;;;;;3.10;2.80;;;;;;;7.99;100.00;101357.41;5113944;28;20016;-57
2023/12/27 10:59:09;;;;;;;8.10;4.43;;;;;;;8.04;100.00;101363.38;5112645;28;20028;-57
2023/12/27 11:01:37;;;;;;;5.63;2.85;;;;;;;8.01;100.00;101358.22;5112035;28;20032;-57
2023/12/27 11:04:11;;;;;;;7.63;3.05;;;;;;;8.01;100.00;101352.94;5110805;27;20038;-57
2023/12/27 11:06:37;;;;;;;6.72;3.17;;;;;;;8.06;100.00;101342.97;5112054;28;20043;-58
2023/12/27 11:09:09;;;;;;;5.90;3.00;;;;;;;8.09;100.00;101334.88;5109392;28;20077;-57
2023/12/27 11:11:39;;;;;;;7.57;3.20;;;;;;;8.09;100.00;101329.56;5093903;28;20023;-58
2023/12/27 11:14:07;;;;;;;4.30;3.15;;;;;;;8.06;100.00;101329.72;5109165;27;20449;-57
2023/12/27 11:16:34;;;;;;;5.40;3.50;;;;;;;8.11;100.00;101346.28;5111409;28;20024;-57